Clay, New York
Current Conditions -  °F | °C
As of 10:54 AM on Sunday 25 Jan 2015 (Local Time) from KSYR Reporting Station
Scattered Clouds Scattered Clouds  
Wind Chill:   Ceiling: Unl
Heat Index: 16°   Visibility: 10mi
Dew Point:   Wind: 14mph
Humidity: 71%   Direction: 300°WNW
Pressure: 29.88"   Gusts: NA
Location:  43.19°N, 76.17°W
Report Text: KSYR 251554Z 30012KT 10SM FEW018 SCT025 M09/M13 A2988 RMK AO2 SNB19E43 SLP123 P0000 T10891133 $
Loading
Personal Weather Stations






























Interactive Weather Map New forecast layout! Learn more

10-Day Weather Forecast

Advertisements
Track Severe Weather on mobile